createdAt,value
2023-05-19T00:00:53.562Z,0
2023-05-19T00:02:51.978Z,0
2023-05-19T00:03:51.938Z,0
2023-05-19T00:04:52.930Z,0
2023-05-19T00:05:53.602Z,0
2023-05-19T00:06:54.261Z,0
2023-05-19T00:07:54.931Z,0
2023-05-19T00:08:55.430Z,0
2023-05-19T00:09:55.920Z,0
2023-05-19T00:10:56.825Z,0
2023-05-19T00:11:56.860Z,0
2023-05-19T00:12:59.274Z,0
2023-05-19T00:13:58.178Z,0
2023-05-19T00:14:59.087Z,0
2023-05-19T00:15:59.580Z,0
2023-05-19T00:17:00.715Z,0
2023-05-19T00:18:00.839Z,0
2023-05-19T00:19:01.563Z,0
2023-05-19T00:20:02.511Z,0
2023-05-19T00:21:03.208Z,0
2023-05-19T00:22:03.980Z,0
2023-05-19T00:23:04.512Z,0
2023-05-19T00:24:05.432Z,0
2023-05-19T00:25:06.333Z,0
2023-05-19T00:26:06.795Z,0
2023-05-19T00:27:07.129Z,0
2023-05-19T00:28:07.560Z,0
2023-05-19T00:29:07.810Z,0
2023-05-19T00:30:09.458Z,0
2023-05-19T00:31:09.941Z,0
2023-05-19T00:32:10.507Z,0
2023-05-19T00:33:11.880Z,0
2023-05-19T00:34:10.976Z,0
2023-05-19T00:35:12.593Z,0
2023-05-19T00:36:13.519Z,0
2023-05-19T00:37:14.397Z,0
2023-05-19T00:38:15.268Z,0
2023-05-19T00:39:15.762Z,0
2023-05-19T00:40:16.720Z,0
2023-05-19T00:41:17.218Z,0
2023-05-19T00:42:17.809Z,0
2023-05-19T00:43:18.088Z,0
2023-05-19T00:44:18.573Z,0
2023-05-19T00:45:19.461Z,0
2023-05-19T00:46:20.287Z,0
2023-05-19T00:47:21.026Z,0
2023-05-19T00:48:21.670Z,0
2023-05-19T00:49:22.146Z,0
2023-05-19T00:50:22.940Z,0
2023-05-19T00:51:23.598Z,0
2023-05-19T00:52:24.113Z,0
2023-05-19T00:53:24.171Z,0
2023-05-19T00:54:25.095Z,0
2023-05-19T00:55:26.301Z,0
2023-05-19T00:56:26.398Z,0
2023-05-19T00:57:26.677Z,0
2023-05-19T00:58:27.222Z,0
2023-05-19T00:59:27.713Z,0
2023-05-19T01:00:28.562Z,0
2023-05-19T01:01:29.597Z,0
2023-05-19T01:02:30.623Z,0
2023-05-19T01:03:30.537Z,0
2023-05-19T01:04:31.070Z,0
2023-05-19T01:05:32.079Z,0
2023-05-19T01:06:31.707Z,0
2023-05-19T01:07:32.205Z,0
2023-05-19T01:08:32.771Z,0
2023-05-19T01:09:33.521Z,0
2023-05-19T01:10:34.485Z,0
2023-05-19T01:11:35.173Z,0
2023-05-19T01:12:35.323Z,0
2023-05-19T01:13:35.790Z,0
2023-05-19T01:14:36.873Z,0
2023-05-19T01:15:37.580Z,0
2023-05-19T01:16:38.310Z,0
2023-05-19T01:17:39.278Z,0
2023-05-19T01:18:39.804Z,0
2023-05-19T01:19:40.136Z,0
2023-05-19T01:20:41.930Z,0
2023-05-19T01:21:41.609Z,0
2023-05-19T01:22:42.015Z,0
2023-05-19T01:23:42.920Z,0
2023-05-19T01:24:42.392Z,0
2023-05-19T01:25:43.103Z,0
2023-05-19T01:26:43.853Z,0
2023-05-19T01:27:44.536Z,0
2023-05-19T01:28:45.022Z,0
2023-05-19T01:29:46.067Z,0
2023-05-19T01:30:47.033Z,0
2023-05-19T01:31:48.169Z,0
2023-05-19T01:32:49.226Z,0
2023-05-19T01:33:49.164Z,0
2023-05-19T01:34:49.434Z,0
2023-05-19T01:35:50.208Z,0
2023-05-19T01:36:51.317Z,0
2023-05-19T01:37:52.231Z,0
2023-05-19T01:38:52.918Z,0
2023-05-19T01:39:53.814Z,0
2023-05-19T01:40:54.755Z,0
2023-05-19T01:41:55.233Z,0
2023-05-19T01:42:57.653Z,0
2023-05-19T01:43:56.283Z,0
2023-05-19T01:44:56.558Z,0
2023-05-19T01:45:58.967Z,0
2023-05-19T01:46:58.767Z,0
2023-05-19T01:47:59.457Z,0
2023-05-19T01:48:59.573Z,0
2023-05-19T01:50:00.239Z,0
2023-05-19T01:51:01.478Z,0
2023-05-19T01:52:00.951Z,0
2023-05-19T01:53:01.382Z,0
2023-05-19T01:54:02.097Z,0
2023-05-19T01:55:02.412Z,0
2023-05-19T01:56:03.313Z,0
2023-05-19T01:57:03.984Z,0
2023-05-19T01:58:04.446Z,0
2023-05-19T01:59:04.917Z,0
2023-05-19T02:00:05.426Z,0
2023-05-19T02:01:06.221Z,0
2023-05-19T02:02:06.797Z,0
2023-05-19T02:03:07.866Z,0
2023-05-19T02:04:07.671Z,0
2023-05-19T02:05:08.561Z,0
2023-05-19T02:06:09.708Z,0
2023-05-19T02:07:09.004Z,0
2023-05-19T02:08:10.103Z,0
2023-05-19T02:09:10.769Z,0
2023-05-19T02:10:11.049Z,0
2023-05-19T02:11:11.769Z,0
2023-05-19T02:12:12.276Z,0
2023-05-19T02:13:13.706Z,0
2023-05-19T02:14:14.423Z,0
2023-05-19T02:15:15.043Z,0
2023-05-19T02:16:16.235Z,0
2023-05-19T02:17:16.049Z,0
2023-05-19T02:18:17.410Z,0
2023-05-19T02:19:17.038Z,0
2023-05-19T02:20:17.718Z,0
2023-05-19T02:21:18.925Z,0
2023-05-19T02:22:18.459Z,0
2023-05-19T02:23:19.026Z,0
2023-05-19T02:24:19.685Z,0
2023-05-19T02:25:20.002Z,0
2023-05-19T02:26:20.903Z,0
2023-05-19T02:27:21.641Z,0
2023-05-19T02:28:22.315Z,0
2023-05-19T02:29:23.205Z,0
2023-05-19T02:30:24.301Z,0
2023-05-19T02:31:25.270Z,0
2023-05-19T02:32:25.960Z,0
2023-05-19T02:33:26.466Z,0
2023-05-19T02:34:26.567Z,0
2023-05-19T02:35:27.279Z,0
2023-05-19T02:36:28.246Z,0
2023-05-19T02:37:27.699Z,0
2023-05-19T02:38:28.376Z,0
2023-05-19T02:39:29.113Z,0
2023-05-19T02:40:29.540Z,0
2023-05-19T02:41:30.329Z,0
2023-05-19T02:42:30.624Z,0
2023-05-19T02:43:32.003Z,0
2023-05-19T02:44:32.926Z,0
2023-05-19T02:45:33.761Z,0
2023-05-19T02:46:34.553Z,0
2023-05-19T02:47:36.991Z,0
2023-05-19T02:48:36.318Z,0
2023-05-19T02:49:37.183Z,0
2023-05-19T02:50:38.204Z,0
2023-05-19T02:51:38.982Z,0
2023-05-19T02:52:39.690Z,0
2023-05-19T02:53:40.151Z,0
2023-05-19T02:54:40.840Z,0
2023-05-19T02:55:41.735Z,0
2023-05-19T02:56:42.667Z,0
2023-05-19T02:57:43.232Z,0
2023-05-19T02:58:43.702Z,0
2023-05-19T02:59:44.584Z,0
2023-05-19T03:00:45.680Z,0
2023-05-19T03:01:46.604Z,0
2023-05-19T03:02:46.836Z,0
2023-05-19T03:03:47.290Z,0
2023-05-19T03:04:47.031Z,0
2023-05-19T03:05:47.127Z,0
2023-05-19T03:06:48.145Z,0
2023-05-19T03:07:48.849Z,0
2023-05-19T03:08:53.242Z,0
2023-05-19T03:09:49.724Z,0
2023-05-19T03:10:50.080Z,0
2023-05-19T03:11:50.809Z,0
2023-05-19T03:12:50.887Z,0
2023-05-19T03:13:52.309Z,0
2023-05-19T03:14:53.062Z,0
2023-05-19T03:15:53.988Z,0
2023-05-19T03:16:55.181Z,0
2023-05-19T03:17:55.409Z,0
2023-05-19T03:18:55.837Z,0
2023-05-19T03:19:55.387Z,0
2023-05-19T03:20:58.044Z,0
2023-05-19T03:21:56.719Z,0
2023-05-19T03:22:57.017Z,0
2023-05-19T03:23:58.367Z,0
2023-05-19T03:24:58.666Z,0
2023-05-19T03:25:59.410Z,0
2023-05-19T03:27:00.138Z,0
2023-05-19T03:28:00.835Z,0
2023-05-19T03:29:01.919Z,0
2023-05-19T03:30:03.839Z,0
2023-05-19T03:31:02.919Z,0
2023-05-19T03:32:03.942Z,0
2023-05-19T03:33:05.153Z,0
2023-05-19T03:34:06.003Z,0
2023-05-19T03:35:05.532Z,0
2023-05-19T03:36:06.204Z,0
2023-05-19T03:37:07.149Z,0
2023-05-19T03:38:07.854Z,0
2023-05-19T03:39:08.548Z,0
2023-05-19T03:40:09.243Z,0
2023-05-19T03:41:09.793Z,0
2023-05-19T03:42:10.541Z,0
2023-05-19T03:43:10.857Z,0
2023-05-19T03:44:11.612Z,0
2023-05-19T03:45:12.165Z,0
2023-05-19T03:46:13.245Z,0
2023-05-19T03:47:13.807Z,0
2023-05-19T03:48:14.896Z,0
2023-05-19T03:49:15.607Z,0
2023-05-19T03:50:16.123Z,0
2023-05-19T03:51:16.820Z,0
2023-05-19T03:52:18.066Z,0
2023-05-19T03:53:17.770Z,0
2023-05-19T03:54:18.524Z,0
2023-05-19T03:55:18.832Z,0
2023-05-19T03:56:19.549Z,0
2023-05-19T03:57:20.654Z,0
2023-05-19T03:58:21.233Z,0
2023-05-19T03:59:21.729Z,0
2023-05-19T04:00:22.312Z,0
2023-05-19T04:01:22.992Z,0
2023-05-19T04:02:24.951Z,0
2023-05-19T04:03:24.332Z,0
2023-05-19T04:04:24.311Z,0
2023-05-19T04:05:25.083Z,0
2023-05-19T04:06:25.749Z,0
2023-05-19T04:07:26.538Z,0
2023-05-19T04:08:27.413Z,0
2023-05-19T04:09:27.900Z,0
2023-05-19T04:10:28.383Z,0
2023-05-19T04:11:29.069Z,5.63
2023-05-19T04:12:29.971Z,5.63
2023-05-19T04:13:30.321Z,5.63
2023-05-19T04:14:31.739Z,5.63
2023-05-19T04:15:32.485Z,5.63
2023-05-19T04:16:33.364Z,5.63
2023-05-19T04:17:34.414Z,5.63
2023-05-19T04:18:34.744Z,5.63
2023-05-19T04:19:35.019Z,5.63
2023-05-19T04:20:35.038Z,5.63
2023-05-19T04:21:35.071Z,5.63
2023-05-19T04:22:35.998Z,5.63
2023-05-19T04:23:36.969Z,5.63
2023-05-19T04:24:37.531Z,5.63
2023-05-19T04:25:38.222Z,5.63
2023-05-19T04:26:39.083Z,5.63
2023-05-19T04:27:39.829Z,5.63
2023-05-19T04:28:40.730Z,5.63
2023-05-19T04:29:41.628Z,5.63
2023-05-19T04:30:43.142Z,5.63
2023-05-19T04:31:43.481Z,5.63
2023-05-19T04:32:43.372Z,5.63
2023-05-19T04:33:44.070Z,5.63
2023-05-19T04:34:44.402Z,5.63
2023-05-19T04:35:45.490Z,5.63
2023-05-19T04:36:46.029Z,5.63
2023-05-19T04:37:46.985Z,5.63
2023-05-19T04:38:47.893Z,5.63
2023-05-19T04:39:48.791Z,5.63
2023-05-19T04:40:49.163Z,11.25
2023-05-19T04:41:49.863Z,11.25
2023-05-19T04:42:50.585Z,11.25
2023-05-19T04:43:51.497Z,11.25
2023-05-19T04:44:52.344Z,11.25
2023-05-19T04:45:53.540Z,11.25
2023-05-19T04:46:53.334Z,11.25
2023-05-19T04:47:53.936Z,11.25
2023-05-19T04:48:54.883Z,11.25
2023-05-19T04:49:54.635Z,11.25
2023-05-19T04:50:55.128Z,11.25
2023-05-19T04:51:57.415Z,11.25
2023-05-19T04:52:56.159Z,16.88
2023-05-19T04:53:57.074Z,16.88
2023-05-19T04:54:57.691Z,16.88
2023-05-19T04:55:57.965Z,16.88
2023-05-19T04:56:58.434Z,16.88
2023-05-19T04:57:59.522Z,16.88
2023-05-19T04:58:59.829Z,22.5
2023-05-19T05:00:00.570Z,22.5
2023-05-19T05:01:01.072Z,22.5
2023-05-19T05:02:02.106Z,22.5
2023-05-19T05:03:02.351Z,22.5
2023-05-19T05:04:02.728Z,22.5
2023-05-19T05:05:02.587Z,22.5
2023-05-19T05:06:02.889Z,22.5
2023-05-19T05:07:03.821Z,22.5
2023-05-19T05:08:04.443Z,22.5
2023-05-19T05:09:05.335Z,22.5
2023-05-19T05:10:06.029Z,28.13
2023-05-19T05:11:06.757Z,28.13
2023-05-19T05:12:07.447Z,28.13
2023-05-19T05:13:09.579Z,28.13
2023-05-19T05:14:08.455Z,28.13
2023-05-19T05:15:08.579Z,22.5
2023-05-19T05:16:09.239Z,22.5
2023-05-19T05:17:09.963Z,22.5
2023-05-19T05:18:10.513Z,22.5
2023-05-19T05:19:11.224Z,22.5
2023-05-19T05:20:12.035Z,22.5
2023-05-19T05:21:12.737Z,28.13
2023-05-19T05:22:13.228Z,28.13
2023-05-19T05:23:14.420Z,28.13
2023-05-19T05:24:14.308Z,28.13
2023-05-19T05:25:14.920Z,28.13
2023-05-19T05:26:15.423Z,28.13
2023-05-19T05:27:15.792Z,33.75
2023-05-19T05:28:16.277Z,33.75
2023-05-19T05:29:17.182Z,39.38
2023-05-19T05:30:17.678Z,39.38
2023-05-19T05:31:18.442Z,39.38
2023-05-19T05:32:19.153Z,39.38
2023-05-19T05:33:21.333Z,39.38
2023-05-19T05:34:19.888Z,39.38
2023-05-19T05:35:20.999Z,39.38
2023-05-19T05:36:21.687Z,39.38
2023-05-19T05:37:26.134Z,33.75
2023-05-19T05:38:23.147Z,33.75
2023-05-19T05:39:23.842Z,39.38
2023-05-19T05:40:24.790Z,39.38
2023-05-19T05:41:25.614Z,39.38
2023-05-19T05:42:28.971Z,33.75
2023-05-19T05:43:27.582Z,39.38
2023-05-19T05:44:28.293Z,45
2023-05-19T05:45:28.399Z,50.63
2023-05-19T05:46:29.328Z,50.63
2023-05-19T05:47:29.821Z,50.63
2023-05-19T05:48:31.017Z,56.25
2023-05-19T05:49:30.954Z,56.25
2023-05-19T05:50:31.670Z,56.25
2023-05-19T05:51:31.967Z,56.25
2023-05-19T05:52:32.912Z,56.25
2023-05-19T05:53:34.119Z,56.25
2023-05-19T05:54:33.803Z,56.25
2023-05-19T05:55:34.189Z,56.25
2023-05-19T05:56:35.193Z,56.25
2023-05-19T05:57:35.988Z,56.25
2023-05-19T05:58:37.403Z,56.25
2023-05-19T05:59:37.353Z,56.25
2023-05-19T06:00:38.528Z,56.25
2023-05-19T06:01:40.956Z,61.88
2023-05-19T06:02:39.021Z,61.88
2023-05-19T06:03:39.094Z,61.88
2023-05-19T06:04:38.663Z,67.5
2023-05-19T06:05:39.616Z,67.5
2023-05-19T06:06:40.575Z,67.5
2023-05-19T06:07:40.858Z,73.13
2023-05-19T06:08:41.664Z,73.13
2023-05-19T06:09:42.575Z,73.13
2023-05-19T06:10:46.547Z,73.13
2023-05-19T06:11:44.092Z,67.5
2023-05-19T06:12:44.413Z,67.5
2023-05-19T06:13:45.214Z,73.13
2023-05-19T06:14:46.018Z,67.5
2023-05-19T06:15:47.058Z,67.5
2023-05-19T06:16:47.267Z,67.5
2023-05-19T06:17:47.897Z,67.5
2023-05-19T06:18:47.849Z,67.5
2023-05-19T06:19:47.950Z,67.5
2023-05-19T06:20:48.920Z,67.5
2023-05-19T06:21:49.922Z,67.5
2023-05-19T06:22:49.797Z,67.5
2023-05-19T06:23:50.824Z,67.5
2023-05-19T06:24:50.744Z,56.25
2023-05-19T06:25:51.336Z,56.25
2023-05-19T06:26:51.943Z,56.25
2023-05-19T06:27:52.491Z,56.25
2023-05-19T06:28:53.229Z,56.25
2023-05-19T06:29:54.108Z,56.25
2023-05-19T06:30:54.387Z,61.88
2023-05-19T06:31:55.772Z,61.88
2023-05-19T06:32:55.500Z,67.5
2023-05-19T06:33:56.496Z,67.5
2023-05-19T06:34:57.222Z,67.5
2023-05-19T06:35:57.527Z,67.5
2023-05-19T06:36:57.999Z,67.5
2023-05-19T06:37:58.518Z,67.5
2023-05-19T06:39:01.281Z,61.88
2023-05-19T06:39:59.624Z,56.25
2023-05-19T06:41:00.128Z,50.63
2023-05-19T06:42:00.798Z,50.63
2023-05-19T06:43:01.322Z,45
2023-05-19T06:44:02.078Z,45
2023-05-19T06:45:02.583Z,50.63
2023-05-19T06:46:02.987Z,50.63
2023-05-19T06:47:04.090Z,50.63
2023-05-19T06:48:04.270Z,50.63
2023-05-19T06:49:05.091Z,45
2023-05-19T06:50:05.917Z,45
2023-05-19T06:51:06.875Z,45
2023-05-19T06:52:07.641Z,39.38
2023-05-19T06:53:07.924Z,39.38
2023-05-19T06:54:09.109Z,39.38
2023-05-19T06:55:09.023Z,39.38
2023-05-19T06:57:17.558Z,45
2023-05-19T06:58:18.949Z,45
2023-05-19T06:59:19.318Z,50.63
2023-05-19T07:00:36.576Z,50.63
2023-05-19T07:01:20.016Z,50.63
2023-05-19T07:02:19.717Z,50.63
2023-05-19T07:03:21.419Z,50.63
2023-05-19T07:04:21.731Z,50.63
2023-05-19T07:05:21.555Z,50.63
2023-05-19T07:06:24.298Z,50.63
2023-05-19T07:07:22.951Z,50.63
2023-05-19T07:08:24.032Z,50.63
2023-05-19T07:09:26.641Z,50.63
2023-05-19T07:10:26.069Z,50.63
2023-05-19T07:11:26.015Z,50.63
2023-05-19T07:12:26.301Z,50.63
2023-05-19T07:13:27.416Z,56.25
2023-05-19T07:14:27.352Z,61.88
2023-05-19T07:15:27.450Z,67.5
2023-05-19T07:16:29.337Z,73.13
2023-05-19T07:17:29.377Z,67.5
2023-05-19T07:18:29.084Z,67.5
2023-05-19T07:19:30.681Z,67.5
2023-05-19T07:20:30.812Z,67.5
2023-05-19T07:21:31.196Z,67.5
2023-05-19T07:22:31.305Z,73.13
2023-05-19T07:23:33.722Z,67.5
2023-05-19T07:24:31.815Z,61.88
2023-05-19T07:25:32.731Z,61.88
2023-05-19T07:26:33.253Z,56.25
2023-05-19T07:27:34.145Z,56.25
2023-05-19T07:28:34.448Z,61.88
2023-05-19T07:29:35.371Z,67.5
2023-05-19T07:30:36.737Z,67.5
2023-05-19T07:31:36.370Z,61.88
2023-05-19T07:32:37.763Z,67.5
2023-05-19T07:33:37.270Z,67.5
2023-05-19T07:34:38.275Z,73.13
2023-05-19T07:35:38.992Z,73.13
2023-05-19T07:36:39.766Z,73.13
2023-05-19T07:37:40.669Z,73.13
2023-05-19T07:38:40.469Z,73.13
2023-05-19T07:39:41.896Z,73.13
2023-05-19T07:40:42.363Z,67.5
2023-05-19T07:41:41.892Z,67.5
2023-05-19T07:42:42.203Z,56.25
2023-05-19T07:43:42.899Z,56.25
2023-05-19T07:44:43.652Z,50.63
2023-05-19T07:45:44.523Z,50.63
2023-05-19T07:46:45.732Z,50.63
2023-05-19T07:47:45.442Z,50.63
2023-05-19T07:48:46.312Z,50.63
2023-05-19T07:49:48.619Z,50.63
2023-05-19T07:50:47.703Z,45
2023-05-19T07:51:47.365Z,39.38
2023-05-19T07:52:48.105Z,39.38
2023-05-19T07:53:48.384Z,33.75
2023-05-19T07:54:49.508Z,33.75
2023-05-19T07:55:49.461Z,33.75
2023-05-19T07:56:49.782Z,33.75
2023-05-19T07:57:50.685Z,39.38
2023-05-19T07:58:50.973Z,45
2023-05-19T07:59:51.889Z,50.63
2023-05-19T08:00:52.622Z,50.63
2023-05-19T08:01:53.334Z,50.63
2023-05-19T08:02:54.714Z,56.25
2023-05-19T08:03:55.275Z,61.88
2023-05-19T08:04:55.282Z,61.88
2023-05-19T08:05:55.670Z,67.5
2023-05-19T08:06:55.863Z,67.5
2023-05-19T08:07:56.356Z,67.5
2023-05-19T08:08:57.097Z,67.5
2023-05-19T08:09:58.385Z,67.5
2023-05-19T08:10:58.510Z,61.88
2023-05-19T08:11:59.213Z,61.88
2023-05-19T08:12:59.921Z,56.25
2023-05-19T08:14:00.441Z,50.63
2023-05-19T08:15:01.714Z,50.63
2023-05-19T08:16:01.920Z,45
2023-05-19T08:17:02.627Z,39.38
2023-05-19T08:18:03.746Z,39.38
2023-05-19T08:19:04.283Z,33.75
2023-05-19T08:20:05.478Z,33.75
2023-05-19T08:21:05.428Z,33.75
2023-05-19T08:22:06.458Z,33.75
2023-05-19T08:23:07.404Z,33.75
2023-05-19T08:24:07.847Z,33.75
2023-05-19T08:25:08.497Z,33.75
2023-05-19T08:26:09.262Z,33.75
2023-05-19T08:27:09.870Z,39.38
2023-05-19T08:28:10.633Z,45
2023-05-19T08:29:10.961Z,50.63
2023-05-19T08:30:11.954Z,50.63
2023-05-19T08:31:12.899Z,50.63
2023-05-19T08:32:13.432Z,50.63
2023-05-19T08:33:13.593Z,50.63
2023-05-19T08:34:14.124Z,50.63
2023-05-19T08:35:15.031Z,50.63
2023-05-19T08:36:15.730Z,50.63
2023-05-19T08:37:16.216Z,45
2023-05-19T08:38:17.119Z,39.38
2023-05-19T08:39:17.804Z,39.38
2023-05-19T08:40:19.034Z,39.38
2023-05-19T08:41:18.946Z,39.38
2023-05-19T08:42:19.822Z,39.38
2023-05-19T08:43:20.743Z,33.75
2023-05-19T08:44:23.608Z,33.75
2023-05-19T08:45:21.327Z,33.75
2023-05-19T08:46:22.341Z,33.75
2023-05-19T08:47:22.530Z,33.75
2023-05-19T08:48:23.105Z,39.38
2023-05-19T08:49:25.554Z,45
2023-05-19T08:50:24.259Z,45
2023-05-19T08:51:25.005Z,45
2023-05-19T08:52:25.488Z,45
2023-05-19T08:53:45.491Z,39.38
2023-05-19T08:55:28.022Z,45
2023-05-19T08:56:28.924Z,50.63
2023-05-19T08:57:29.223Z,50.63
2023-05-19T08:58:29.333Z,50.63
2023-05-19T08:59:30.411Z,50.63
2023-05-19T09:00:31.939Z,50.63
2023-05-19T09:01:32.573Z,50.63
2023-05-19T09:02:32.754Z,45
2023-05-19T09:03:40.733Z,45
2023-05-19T09:04:33.823Z,45
2023-05-19T09:05:35.212Z,45
2023-05-19T09:06:35.310Z,50.63
2023-05-19T09:07:36.370Z,50.63
2023-05-19T09:08:36.092Z,50.63
2023-05-19T09:09:37.132Z,56.25
2023-05-19T09:10:40.398Z,50.63
2023-05-19T09:11:38.303Z,50.63
2023-05-19T09:12:39.083Z,45
2023-05-19T09:13:39.617Z,39.38
2023-05-19T09:14:40.320Z,39.38
2023-05-19T09:15:41.716Z,39.38
2023-05-19T09:16:44.353Z,33.75
2023-05-19T09:17:42.291Z,33.75
2023-05-19T09:18:43.126Z,33.75
2023-05-19T09:19:44.305Z,39.38
2023-05-19T09:20:44.027Z,39.38
2023-05-19T09:21:44.740Z,50.63
2023-05-19T09:22:45.645Z,50.63
2023-05-19T09:23:46.331Z,50.63
2023-05-19T09:24:46.838Z,50.63
2023-05-19T09:25:47.889Z,50.63
2023-05-19T09:26:47.780Z,50.63
2023-05-19T09:27:48.169Z,50.63
2023-05-19T09:28:49.452Z,56.25
2023-05-19T09:29:49.122Z,61.88
2023-05-19T09:30:50.211Z,73.13
2023-05-19T09:31:51.395Z,73.13
2023-05-19T09:32:52.791Z,78.75
2023-05-19T09:33:56.582Z,84.38
2023-05-19T09:34:52.677Z,84.38
2023-05-19T09:35:53.670Z,84.38
2023-05-19T09:36:54.027Z,84.38
2023-05-19T09:37:53.677Z,90
2023-05-19T09:38:54.600Z,101.25
2023-05-19T09:39:55.104Z,118.13
2023-05-19T09:40:56.357Z,129.38
2023-05-19T09:41:56.045Z,151.88
2023-05-19T09:42:57.152Z,151.88
2023-05-19T09:43:57.637Z,157.5
2023-05-19T09:44:58.107Z,163.13
2023-05-19T09:45:59.323Z,163.13
2023-05-19T09:46:59.408Z,196.88
2023-05-19T09:48:00.323Z,168.75
2023-05-19T09:49:00.818Z,163.13
2023-05-19T09:50:01.394Z,185.63
2023-05-19T09:51:02.693Z,185.63
2023-05-19T09:52:02.446Z,168.75
2023-05-19T09:53:03.545Z,196.88
2023-05-19T09:54:04.368Z,168.75
2023-05-19T09:55:05.312Z,151.88
2023-05-19T09:56:05.371Z,140.63
2023-05-19T09:57:08.269Z,146.25
2023-05-19T09:58:06.924Z,191.25
2023-05-19T09:59:07.658Z,185.63
2023-05-19T10:00:08.224Z,219.38
2023-05-19T10:01:09.096Z,258.75
2023-05-19T10:02:09.905Z,225
2023-05-19T10:03:11.296Z,286.88
2023-05-19T10:04:11.651Z,236.25
2023-05-19T10:05:12.085Z,163.13
2023-05-19T10:06:12.202Z,135
2023-05-19T10:07:11.903Z,135
2023-05-19T10:08:12.800Z,146.25
2023-05-19T10:09:13.895Z,202.5
2023-05-19T10:10:14.726Z,399.38
2023-05-19T10:11:15.384Z,264.38
2023-05-19T10:12:16.090Z,135
2023-05-19T10:13:16.889Z,129.38
2023-05-19T10:14:17.169Z,135
2023-05-19T10:15:17.646Z,151.88
2023-05-19T10:16:19.278Z,157.5
2023-05-19T10:17:18.904Z,157.5
2023-05-19T10:18:19.142Z,185.63
2023-05-19T10:19:20.489Z,112.5
2023-05-19T10:20:20.223Z,106.88
2023-05-19T10:21:21.443Z,95.63
2023-05-19T10:22:21.109Z,95.63
2023-05-19T10:23:21.695Z,95.63
2023-05-19T10:24:23.817Z,101.25
2023-05-19T10:25:22.528Z,101.25
2023-05-19T10:26:23.743Z,101.25
2023-05-19T10:27:23.220Z,106.88
2023-05-19T10:28:23.763Z,118.13
2023-05-19T10:29:24.899Z,112.5
2023-05-19T10:30:28.063Z,101.25
2023-05-19T10:31:25.032Z,95.63
2023-05-19T10:32:26.093Z,90
2023-05-19T10:33:26.322Z,84.38
2023-05-19T10:34:26.150Z,84.38
2023-05-19T10:35:27.103Z,78.75
2023-05-19T10:36:27.856Z,84.38
2023-05-19T10:37:29.704Z,90
2023-05-19T10:38:29.378Z,101.25
2023-05-19T10:39:30.304Z,174.38
2023-05-19T10:40:31.543Z,151.88
2023-05-19T10:41:31.668Z,112.5
2023-05-19T10:42:32.732Z,118.13
2023-05-19T10:43:32.865Z,123.75
2023-05-19T10:44:34.060Z,129.38
2023-05-19T10:45:33.387Z,151.88
2023-05-19T10:46:33.790Z,135
2023-05-19T10:47:33.881Z,140.63
2023-05-19T10:48:34.253Z,146.25
2023-05-19T10:49:34.450Z,151.88
2023-05-19T10:50:34.350Z,180
2023-05-19T10:51:35.485Z,174.38
2023-05-19T10:52:35.609Z,168.75
2023-05-19T10:53:36.346Z,140.63
2023-05-19T10:54:37.051Z,112.5
2023-05-19T10:55:37.789Z,101.25
2023-05-19T10:56:39.149Z,101.25
2023-05-19T10:57:38.972Z,101.25
2023-05-19T10:58:39.202Z,101.25
2023-05-19T10:59:40.678Z,101.25
2023-05-19T11:00:40.406Z,101.25
2023-05-19T11:01:42.014Z,101.25
2023-05-19T11:02:41.641Z,95.63
2023-05-19T11:03:42.963Z,101.25
2023-05-19T11:04:43.182Z,101.25
2023-05-19T11:05:44.515Z,101.25
2023-05-19T11:06:44.572Z,101.25
2023-05-19T11:07:45.318Z,101.25
2023-05-19T11:08:45.530Z,101.25
2023-05-19T11:09:56.727Z,101.25
2023-05-19T11:10:46.657Z,101.25
2023-05-19T11:11:48.096Z,95.63
2023-05-19T11:12:47.866Z,90
2023-05-19T11:13:48.797Z,78.75
2023-05-19T11:14:49.459Z,73.13
2023-05-19T11:15:50.666Z,73.13
2023-05-19T11:16:50.693Z,67.5
2023-05-19T11:17:51.658Z,61.88
2023-05-19T11:18:52.335Z,56.25
2023-05-19T11:19:52.864Z,50.63
2023-05-19T11:20:53.747Z,50.63
2023-05-19T11:21:54.697Z,45
2023-05-19T11:22:55.398Z,39.38
2023-05-19T11:23:57.163Z,39.38
2023-05-19T11:24:57.036Z,33.75
2023-05-19T11:25:57.855Z,33.75
2023-05-19T11:26:58.878Z,33.75
2023-05-19T11:27:58.587Z,33.75
2023-05-19T11:28:59.383Z,33.75
2023-05-19T11:29:59.512Z,33.75
2023-05-19T11:31:00.473Z,33.75
2023-05-19T11:32:00.598Z,33.75
2023-05-19T11:33:01.628Z,39.38
2023-05-19T11:34:01.326Z,39.38
2023-05-19T11:35:02.254Z,45
2023-05-19T11:36:02.862Z,50.63
2023-05-19T11:37:03.425Z,50.63
2023-05-19T11:38:04.488Z,61.88
2023-05-19T11:39:05.401Z,67.5
2023-05-19T11:40:05.689Z,73.13
2023-05-19T11:41:06.638Z,78.75
2023-05-19T11:42:07.616Z,78.75
2023-05-19T11:43:08.708Z,78.75
2023-05-19T11:44:08.447Z,78.75
2023-05-19T11:45:09.230Z,78.75
2023-05-19T11:46:10.322Z,73.13
2023-05-19T11:47:11.248Z,67.5
2023-05-19T11:48:19.104Z,67.5
2023-05-19T11:49:12.490Z,67.5
2023-05-19T11:50:13.653Z,67.5
2023-05-19T11:51:13.158Z,67.5
2023-05-19T11:52:14.182Z,67.5
2023-05-19T11:53:15.885Z,61.88
2023-05-19T11:54:15.788Z,56.25
2023-05-19T11:55:15.949Z,56.25
2023-05-19T11:56:16.976Z,50.63
2023-05-19T11:57:17.155Z,50.63
2023-05-19T11:58:21.249Z,50.63
2023-05-19T11:59:17.678Z,50.63
2023-05-19T12:00:18.381Z,50.63
2023-05-19T12:01:18.951Z,50.63
2023-05-19T12:02:19.808Z,50.63
2023-05-19T12:03:21.589Z,50.63
2023-05-19T12:04:21.796Z,50.63
2023-05-19T12:05:22.107Z,56.25
2023-05-19T12:06:21.927Z,61.88
2023-05-19T12:07:22.683Z,67.5
2023-05-19T12:08:23.736Z,73.13
2023-05-19T12:09:24.872Z,73.13
2023-05-19T12:10:25.575Z,73.13
2023-05-19T12:11:29.585Z,73.13
2023-05-19T12:12:27.945Z,73.13
2023-05-19T12:13:27.693Z,73.13
2023-05-19T12:14:28.077Z,78.75
2023-05-19T12:15:29.163Z,78.75
2023-05-19T12:16:31.154Z,78.75
2023-05-19T12:17:30.984Z,78.75
2023-05-19T12:18:31.012Z,73.13
2023-05-19T12:19:31.916Z,73.13
2023-05-19T12:20:32.915Z,73.13
2023-05-19T12:21:39.753Z,73.13
2023-05-19T12:22:33.964Z,73.13
2023-05-19T12:23:34.726Z,67.5
2023-05-19T12:24:35.572Z,67.5
2023-05-19T12:25:37.093Z,67.5
2023-05-19T12:26:37.276Z,67.5
2023-05-19T12:27:40.311Z,73.13
2023-05-19T12:28:38.265Z,73.13
2023-05-19T12:29:38.392Z,73.13
2023-05-19T12:30:40.283Z,73.13
2023-05-19T12:31:40.274Z,73.13
2023-05-19T12:32:40.540Z,73.13
2023-05-19T12:33:41.075Z,73.13
2023-05-19T12:34:40.995Z,67.5
2023-05-19T12:35:41.769Z,61.88
2023-05-19T12:36:42.454Z,61.88
2023-05-19T12:37:43.404Z,61.88
2023-05-19T12:38:44.276Z,56.25
2023-05-19T12:39:44.764Z,56.25
2023-05-19T12:40:47.136Z,56.25
2023-05-19T12:41:45.411Z,56.25
2023-05-19T12:42:46.347Z,50.63
2023-05-19T12:43:45.872Z,50.63
2023-05-19T12:44:46.350Z,50.63
2023-05-19T12:45:48.219Z,50.63
2023-05-19T12:46:48.168Z,50.63
2023-05-19T12:47:49.282Z,50.63
2023-05-19T12:48:49.093Z,45
2023-05-19T12:49:49.298Z,45
2023-05-19T12:50:51.208Z,45
2023-05-19T12:51:50.876Z,39.38
2023-05-19T12:52:52.299Z,39.38
2023-05-19T12:53:51.371Z,39.38
2023-05-19T12:54:52.751Z,39.38
2023-05-19T12:55:52.568Z,39.38
2023-05-19T12:56:52.946Z,33.75
2023-05-19T12:57:55.471Z,33.75
2023-05-19T12:58:53.655Z,39.38
2023-05-19T12:59:55.448Z,39.38
2023-05-19T13:00:56.602Z,39.38
2023-05-19T13:01:56.782Z,39.38
2023-05-19T13:02:58.183Z,45
2023-05-19T13:03:59.125Z,45
2023-05-19T13:04:58.915Z,50.63
2023-05-19T13:05:59.653Z,50.63
2023-05-19T13:07:00.431Z,50.63
2023-05-19T13:08:01.351Z,50.63
2023-05-19T13:09:01.241Z,50.63
2023-05-19T13:10:02.000Z,50.63
2023-05-19T13:11:02.888Z,50.63
2023-05-19T13:12:03.863Z,45
2023-05-19T13:13:04.594Z,45
2023-05-19T13:14:05.570Z,45
2023-05-19T13:15:06.884Z,45
2023-05-19T13:16:06.418Z,45
2023-05-19T13:17:07.163Z,45
2023-05-19T13:18:08.393Z,45
2023-05-19T13:19:24.187Z,45
2023-05-19T13:20:12.748Z,45
2023-05-19T13:21:13.494Z,45
2023-05-19T13:22:13.996Z,45
2023-05-19T13:23:14.940Z,45
2023-05-19T13:24:15.701Z,45
2023-05-19T13:25:16.540Z,45
2023-05-19T13:26:17.418Z,45
2023-05-19T13:27:18.556Z,45
2023-05-19T13:28:19.541Z,45
2023-05-19T13:29:19.071Z,50.63
2023-05-19T13:30:20.087Z,50.63
2023-05-19T13:31:21.261Z,45
2023-05-19T13:32:21.005Z,45
2023-05-19T13:33:22.008Z,45
2023-05-19T13:34:23.093Z,39.38
2023-05-19T13:35:23.998Z,39.38
2023-05-19T13:36:24.913Z,45
2023-05-19T13:37:26.856Z,45
2023-05-19T13:38:27.403Z,50.63
2023-05-19T13:39:27.096Z,50.63
2023-05-19T13:40:27.952Z,50.63
2023-05-19T13:41:30.107Z,50.63
2023-05-19T13:42:28.642Z,50.63
2023-05-19T13:43:29.437Z,50.63